createdAt,value
2018-07-06T00:01:05.113Z,55.40
2018-07-06T00:03:51.529Z,55.50
2018-07-06T00:06:38.123Z,55.60
2018-07-06T00:09:24.473Z,55.60
2018-07-06T00:12:10.884Z,55.60
2018-07-06T00:14:57.279Z,55.60
2018-07-06T00:17:43.847Z,55.80
2018-07-06T00:20:30.654Z,55.70
2018-07-06T00:23:17.139Z,55.70
2018-07-06T00:26:03.508Z,55.80
2018-07-06T00:28:49.825Z,55.80
2018-07-06T00:31:36.265Z,55.30
2018-07-06T00:34:22.747Z,55.80
2018-07-06T00:37:09.159Z,55.90
2018-07-06T00:39:55.800Z,55.90
2018-07-06T00:42:42.312Z,55.90
2018-07-06T00:45:28.627Z,55.80
2018-07-06T00:48:15.087Z,55.90
2018-07-06T00:51:03.020Z,55.90
2018-07-06T00:53:49.600Z,55.90
2018-07-06T00:56:35.907Z,56.00
2018-07-06T00:59:22.236Z,56.00
2018-07-06T01:02:08.617Z,56.00
2018-07-06T01:04:54.952Z,55.90
2018-07-06T01:07:41.372Z,56.20
2018-07-06T01:10:27.713Z,56.10
2018-07-06T01:13:14.059Z,56.10
2018-07-06T01:16:00.384Z,56.10
2018-07-06T01:18:46.787Z,56.10
2018-07-06T01:21:33.252Z,56.20
2018-07-06T01:24:19.840Z,56.30
2018-07-06T01:27:06.255Z,56.20
2018-07-06T01:29:52.604Z,56.20
2018-07-06T01:32:39.110Z,56.20
2018-07-06T01:35:25.553Z,56.20
2018-07-06T01:38:12.064Z,56.30
2018-07-06T01:40:58.432Z,56.30
2018-07-06T01:43:45.163Z,56.30
2018-07-06T01:46:31.628Z,56.20
2018-07-06T01:49:17.917Z,56.40
2018-07-06T01:52:04.332Z,56.10
2018-07-06T01:54:50.882Z,56.30
2018-07-06T01:57:37.376Z,56.30
2018-07-06T02:00:23.802Z,56.40
2018-07-06T02:03:10.364Z,56.10
2018-07-06T02:05:56.930Z,56.20
2018-07-06T02:08:43.261Z,56.40
2018-07-06T02:14:10.294Z,56.20
2018-07-06T02:16:56.686Z,56.10
2018-07-06T02:19:43.096Z,56.20
2018-07-06T02:22:29.359Z,56.10
2018-07-06T02:27:56.380Z,56.20
2018-07-06T02:30:42.711Z,56.00
2018-07-06T02:33:29.052Z,55.90
2018-07-06T02:36:15.473Z,56.00
2018-07-06T02:39:01.837Z,55.90
2018-07-06T02:41:48.303Z,55.90
2018-07-06T02:44:34.750Z,55.80
2018-07-06T02:47:21.260Z,55.80
2018-07-06T02:50:07.756Z,55.70
2018-07-06T02:52:54.199Z,55.60
2018-07-06T02:55:42.787Z,55.60
2018-07-06T02:58:29.289Z,56.20
2018-07-06T03:01:15.864Z,55.60
2018-07-06T03:04:02.253Z,55.50
2018-07-06T03:06:48.576Z,55.40
2018-07-06T03:09:35.101Z,55.40
2018-07-06T03:12:21.609Z,55.20
2018-07-06T03:15:08.003Z,55.30
2018-07-06T03:17:54.505Z,55.20
2018-07-06T03:20:40.858Z,55.10
2018-07-06T03:23:27.300Z,55.10
2018-07-06T03:26:13.967Z,55.10
2018-07-06T03:29:00.547Z,55.00
2018-07-06T03:31:47.029Z,54.90
2018-07-06T03:34:33.591Z,54.90
2018-07-06T03:37:19.888Z,54.90
2018-07-06T03:40:06.263Z,54.90
2018-07-06T03:42:52.934Z,54.80
2018-07-06T03:45:39.443Z,54.80
2018-07-06T03:48:27.832Z,54.80
2018-07-06T03:51:14.367Z,54.80
2018-07-06T03:54:00.711Z,54.80
2018-07-06T03:56:47.056Z,54.70
2018-07-06T03:59:33.683Z,54.70
2018-07-06T04:02:20.048Z,54.70
2018-07-06T04:05:06.440Z,54.70
2018-07-06T04:07:52.869Z,54.60
2018-07-06T04:10:39.506Z,54.40
2018-07-06T04:13:25.872Z,54.60
2018-07-06T04:16:12.255Z,54.60
2018-07-06T04:19:11.802Z,54.50
2018-07-06T04:21:58.178Z,54.40
2018-07-06T04:24:44.649Z,54.40
2018-07-06T04:27:31.110Z,54.30
2018-07-06T04:30:17.528Z,54.30
2018-07-06T04:33:03.860Z,54.30
2018-07-06T04:35:50.347Z,53.80
2018-07-06T04:38:36.695Z,54.30
2018-07-06T04:41:23.091Z,54.20
2018-07-06T04:44:09.632Z,54.10
2018-07-06T04:46:55.927Z,54.00
2018-07-06T04:49:42.179Z,54.00
2018-07-06T04:52:28.569Z,53.90
2018-07-06T04:55:14.940Z,53.90
2018-07-06T04:58:01.504Z,53.80
2018-07-06T05:00:48.123Z,53.70
2018-07-06T05:03:34.590Z,53.90
2018-07-06T05:06:20.980Z,53.40
2018-07-06T05:09:07.390Z,53.60
2018-07-06T05:11:53.732Z,53.70
2018-07-06T05:14:41.876Z,53.80
2018-07-06T05:17:30.425Z,53.90
2018-07-06T05:20:17.941Z,53.80
2018-07-06T05:23:06.384Z,53.70
2018-07-06T05:25:53.360Z,53.60
2018-07-06T05:28:46.315Z,53.60
2018-07-06T05:31:35.307Z,53.30
2018-07-06T05:34:21.643Z,53.30
2018-07-06T05:37:08.058Z,53.30
2018-07-06T05:39:54.412Z,53.40
2018-07-06T05:45:21.085Z,53.30
2018-07-06T05:48:07.974Z,53.40
2018-07-06T05:50:54.546Z,53.20
2018-07-06T05:53:40.893Z,53.00
2018-07-06T05:56:27.284Z,53.00
2018-07-06T05:59:13.682Z,52.90
2018-07-06T06:02:00.124Z,52.90
2018-07-06T06:04:46.533Z,52.40
2018-07-06T06:07:25.722Z,52.90
2018-07-06T06:09:54.847Z,52.80
2018-07-06T06:12:24.123Z,52.70
2018-07-06T06:14:53.428Z,52.60
2018-07-06T06:17:22.767Z,52.70
2018-07-06T06:19:53.154Z,53.30
2018-07-06T06:22:22.408Z,52.70
2018-07-06T06:24:51.704Z,52.60
2018-07-06T06:27:20.944Z,52.70
2018-07-06T06:29:50.667Z,52.80
2018-07-06T06:32:19.956Z,53.00
2018-07-06T06:34:49.270Z,53.30
2018-07-06T06:37:18.539Z,52.50
2018-07-06T06:39:47.961Z,52.40
2018-07-06T06:42:17.231Z,52.70
2018-07-06T06:44:46.540Z,52.40
2018-07-06T06:47:15.904Z,52.70
2018-07-06T06:49:45.211Z,52.60
2018-07-06T06:52:14.904Z,52.60
2018-07-06T06:54:44.216Z,52.80
2018-07-06T06:59:42.639Z,53.90
2018-07-06T07:02:11.972Z,55.50
2018-07-06T07:04:41.251Z,54.30
2018-07-06T07:07:10.560Z,53.90
2018-07-06T07:09:39.828Z,53.30
2018-07-06T07:12:09.128Z,53.00
2018-07-06T07:14:38.411Z,53.10
2018-07-06T07:17:07.687Z,53.10
2018-07-06T07:19:37.100Z,53.10
2018-07-06T07:22:06.387Z,52.90
2018-07-06T07:24:35.650Z,52.80
2018-07-06T07:27:04.996Z,52.80
2018-07-06T07:29:34.274Z,52.70
2018-07-06T07:32:03.598Z,52.60
2018-07-06T07:34:32.892Z,52.60
2018-07-06T07:37:02.204Z,53.30
2018-07-06T07:39:31.524Z,52.60
2018-07-06T07:42:00.787Z,52.50
2018-07-06T07:44:30.068Z,52.60
2018-07-06T07:46:59.476Z,52.60
2018-07-06T07:49:28.856Z,52.60
2018-07-06T07:52:11.587Z,52.60
2018-07-06T07:54:44.151Z,52.40
2018-07-06T07:57:13.452Z,52.60
2018-07-06T07:59:43.019Z,52.60
2018-07-06T08:02:12.308Z,52.60
2018-07-06T08:04:41.980Z,52.50
2018-07-06T08:07:11.302Z,52.50
2018-07-06T08:09:40.626Z,52.50
2018-07-06T08:12:09.968Z,52.50
2018-07-06T08:14:39.245Z,52.50
2018-07-06T08:17:08.555Z,52.60
2018-07-06T08:19:37.823Z,52.60
2018-07-06T08:22:07.152Z,52.50
2018-07-06T08:24:36.435Z,52.50
2018-07-06T08:27:05.724Z,52.50
2018-07-06T08:29:35.032Z,52.50
2018-07-06T08:32:04.387Z,52.50
2018-07-06T08:34:44.811Z,52.50
2018-07-06T08:39:48.436Z,52.60
2018-07-06T08:42:17.857Z,52.70
2018-07-06T08:44:47.325Z,52.60
2018-07-06T08:47:16.772Z,52.50
2018-07-06T08:49:46.066Z,52.50
2018-07-06T08:52:15.471Z,52.60
2018-07-06T08:54:44.825Z,52.60
2018-07-06T08:57:14.172Z,52.70
2018-07-06T08:59:43.488Z,53.20
2018-07-06T09:02:13.128Z,52.50
2018-07-06T09:04:42.515Z,52.50
2018-07-06T09:07:11.756Z,52.60
2018-07-06T09:09:41.069Z,52.50
2018-07-06T09:12:11.009Z,52.60
2018-07-06T09:14:40.772Z,52.50
2018-07-06T09:17:11.771Z,52.50
2018-07-06T09:19:41.910Z,52.50
2018-07-06T09:22:11.439Z,52.50
2018-07-06T09:24:41.042Z,52.50
2018-07-06T09:27:10.627Z,52.60
2018-07-06T09:29:40.241Z,52.50
2018-07-06T09:32:09.835Z,52.60
2018-07-06T09:34:39.676Z,52.50
2018-07-06T09:37:09.343Z,52.50
2018-07-06T09:39:39.680Z,52.50
2018-07-06T09:42:09.020Z,52.50
2018-07-06T09:44:38.334Z,52.50
2018-07-06T09:47:07.629Z,52.40
2018-07-06T09:49:36.951Z,52.40
2018-07-06T09:52:06.236Z,52.50
2018-07-06T09:54:35.576Z,52.40
2018-07-06T09:57:04.971Z,52.50
2018-07-06T09:59:34.533Z,52.40
2018-07-06T10:02:03.852Z,52.00
2018-07-06T10:04:33.189Z,53.10
2018-07-06T10:07:02.492Z,51.90
2018-07-06T10:09:32.631Z,52.40
2018-07-06T10:12:02.148Z,52.40
2018-07-06T10:14:31.495Z,52.40
2018-07-06T10:17:00.796Z,52.60
2018-07-06T10:19:30.154Z,51.90
2018-07-06T10:21:59.477Z,52.50
2018-07-06T10:24:28.864Z,52.40
2018-07-06T10:26:58.260Z,52.40
2018-07-06T10:29:49.175Z,52.50
2018-07-06T10:32:22.088Z,52.50
2018-07-06T10:34:51.385Z,52.50
2018-07-06T10:37:21.177Z,52.40
2018-07-06T10:39:51.136Z,52.40
2018-07-06T10:42:20.307Z,52.30
2018-07-06T10:44:49.799Z,52.30
2018-07-06T10:47:19.110Z,52.30
2018-07-06T10:49:48.408Z,52.30
2018-07-06T10:52:18.072Z,52.30
2018-07-06T10:54:48.114Z,52.40
2018-07-06T10:57:17.425Z,52.30
2018-07-06T10:59:46.778Z,52.40
2018-07-06T11:02:16.055Z,52.30
2018-07-06T11:04:45.458Z,52.40
2018-07-06T11:07:14.755Z,52.40
2018-07-06T11:12:12.876Z,52.40
2018-07-06T11:14:42.250Z,52.30
2018-07-06T11:17:11.536Z,52.30
2018-07-06T11:19:40.948Z,52.30
2018-07-06T11:22:10.296Z,52.30
2018-07-06T11:24:39.590Z,52.20
2018-07-06T11:27:08.923Z,52.20
2018-07-06T11:29:38.219Z,52.10
2018-07-06T11:32:07.600Z,52.20
2018-07-06T11:34:37.055Z,52.20
2018-07-06T11:37:06.370Z,52.20
2018-07-06T11:39:35.673Z,52.20
2018-07-06T11:42:04.989Z,52.10
2018-07-06T11:44:34.377Z,52.20
2018-07-06T11:47:03.733Z,52.20
2018-07-06T11:49:35.135Z,52.10
2018-07-06T11:52:04.483Z,52.10
2018-07-06T11:54:33.911Z,52.20
2018-07-06T11:57:03.328Z,52.20
2018-07-06T11:59:32.696Z,51.80
2018-07-06T12:02:02.208Z,52.80
2018-07-06T12:04:31.653Z,52.40
2018-07-06T12:07:01.135Z,52.70
2018-07-06T12:09:30.731Z,52.50
2018-07-06T12:12:00.019Z,52.60
2018-07-06T12:14:29.296Z,52.40
2018-07-06T12:16:58.818Z,53.10
2018-07-06T12:19:28.160Z,52.30
2018-07-06T12:21:57.427Z,52.40
2018-07-06T12:24:26.780Z,52.50
2018-07-06T12:26:56.072Z,52.60
2018-07-06T12:29:25.386Z,52.60
2018-07-06T12:31:54.667Z,52.50
2018-07-06T12:34:23.951Z,52.50
2018-07-06T12:36:53.386Z,52.40
2018-07-06T12:39:22.613Z,52.60
2018-07-06T12:41:51.919Z,52.50
2018-07-06T12:44:21.244Z,52.40
2018-07-06T12:46:50.548Z,52.40
2018-07-06T12:49:19.851Z,52.40
2018-07-06T12:51:49.181Z,52.50
2018-07-06T12:54:18.482Z,52.40
2018-07-06T12:56:47.751Z,52.50
2018-07-06T12:59:17.038Z,52.50
2018-07-06T13:01:46.311Z,52.50
2018-07-06T13:04:15.892Z,52.50
2018-07-06T13:06:45.185Z,52.50
2018-07-06T13:09:14.533Z,52.60
2018-07-06T13:11:43.821Z,52.60
2018-07-06T13:14:13.354Z,52.10
2018-07-06T13:16:42.644Z,52.60
2018-07-06T13:19:12.082Z,52.50
2018-07-06T13:24:10.223Z,53.20
2018-07-06T13:26:39.491Z,52.60
2018-07-06T13:29:08.815Z,52.60
2018-07-06T13:31:38.190Z,52.50
2018-07-06T13:34:07.483Z,52.50
2018-07-06T13:36:36.743Z,52.50
2018-07-06T13:39:06.050Z,52.50
2018-07-06T13:41:35.389Z,52.50
2018-07-06T13:44:04.630Z,52.50
2018-07-06T13:46:34.034Z,52.50
2018-07-06T13:49:03.284Z,52.60
2018-07-06T13:51:32.569Z,52.70
2018-07-06T13:54:01.886Z,52.60
2018-07-06T13:56:31.156Z,52.60
2018-07-06T13:59:00.486Z,52.60
2018-07-06T14:01:29.748Z,52.60
2018-07-06T14:03:59.046Z,52.70
2018-07-06T14:06:28.445Z,52.70
2018-07-06T14:08:57.746Z,52.60
2018-07-06T14:11:27.043Z,52.50
2018-07-06T14:13:56.763Z,52.50
2018-07-06T14:16:26.282Z,52.50
2018-07-06T14:18:55.626Z,52.60
2018-07-06T14:21:25.060Z,52.60
2018-07-06T14:23:54.375Z,52.60
2018-07-06T14:26:23.684Z,52.50
2018-07-06T14:28:52.974Z,52.60
2018-07-06T14:31:22.329Z,52.50
2018-07-06T14:33:51.601Z,52.50
2018-07-06T14:36:20.897Z,52.40
2018-07-06T14:38:50.203Z,52.40
2018-07-06T14:41:19.493Z,52.40
2018-07-06T14:43:48.827Z,52.30
2018-07-06T14:46:18.124Z,51.80
2018-07-06T14:48:47.504Z,52.30
2018-07-06T14:51:16.798Z,52.20
2018-07-06T14:53:46.328Z,52.10
2018-07-06T14:56:15.614Z,52.10
2018-07-06T14:58:44.902Z,52.10
2018-07-06T15:01:14.208Z,52.10
2018-07-06T15:03:44.003Z,52.20
2018-07-06T15:06:13.295Z,52.20
2018-07-06T15:08:42.584Z,52.10
2018-07-06T15:11:12.027Z,52.20
2018-07-06T15:13:41.339Z,52.20
2018-07-06T15:16:10.709Z,52.20
2018-07-06T15:18:40.005Z,51.70
2018-07-06T15:21:09.438Z,52.20
2018-07-06T15:23:38.729Z,52.30
2018-07-06T15:26:08.207Z,51.80
2018-07-06T15:28:37.590Z,52.30
2018-07-06T15:31:07.052Z,52.40
2018-07-06T15:33:36.347Z,52.50
2018-07-06T15:36:05.732Z,52.60
2018-07-06T15:38:35.033Z,52.40
2018-07-06T15:41:04.606Z,52.50
2018-07-06T15:43:33.855Z,52.10
2018-07-06T15:46:03.187Z,52.20
2018-07-06T15:48:32.499Z,52.70
2018-07-06T15:51:01.840Z,52.70
2018-07-06T15:53:31.098Z,52.70
2018-07-06T15:56:00.436Z,52.70
2018-07-06T15:58:29.711Z,52.70
2018-07-06T16:00:59.016Z,52.70
2018-07-06T16:03:28.321Z,52.70
2018-07-06T16:05:57.589Z,52.80
2018-07-06T16:08:26.997Z,52.70
2018-07-06T16:10:56.327Z,52.70
2018-07-06T16:13:25.631Z,52.80
2018-07-06T16:15:54.908Z,52.70
2018-07-06T16:18:24.356Z,52.80
2018-07-06T16:20:53.783Z,52.70
2018-07-06T16:23:22.988Z,52.80
2018-07-06T16:25:52.279Z,52.70
2018-07-06T16:28:21.551Z,52.80
2018-07-06T16:30:50.852Z,52.70
2018-07-06T16:33:20.119Z,52.70
2018-07-06T16:35:49.479Z,52.60
2018-07-06T16:38:18.792Z,52.60
2018-07-06T16:40:48.121Z,52.70
2018-07-06T16:43:17.448Z,52.70
2018-07-06T16:45:46.748Z,52.70
2018-07-06T16:48:16.075Z,52.80
2018-07-06T16:50:45.918Z,52.70
2018-07-06T16:53:15.227Z,52.70
2018-07-06T16:55:44.511Z,52.70
2018-07-06T16:58:14.248Z,52.70
2018-07-06T17:00:43.736Z,52.80
2018-07-06T17:03:13.099Z,52.70
2018-07-06T17:05:42.419Z,52.70
2018-07-06T17:08:11.943Z,52.70
2018-07-06T17:10:41.226Z,52.70
2018-07-06T17:13:10.587Z,52.80
2018-07-06T17:15:39.971Z,52.80
2018-07-06T17:18:09.311Z,53.20
2018-07-06T17:20:38.607Z,52.70
2018-07-06T17:23:07.951Z,52.80
2018-07-06T17:25:37.244Z,52.70
2018-07-06T17:28:07.857Z,52.80
2018-07-06T17:30:38.322Z,52.80
2018-07-06T17:33:07.741Z,52.70
2018-07-06T17:35:38.589Z,52.70
2018-07-06T17:38:07.969Z,52.70
2018-07-06T17:40:39.765Z,52.80
2018-07-06T17:43:09.156Z,53.00
2018-07-06T17:45:39.223Z,53.00
2018-07-06T17:48:08.514Z,52.80
2018-07-06T17:50:38.975Z,52.80
2018-07-06T17:53:12.861Z,52.80
2018-07-06T17:55:42.897Z,52.80
2018-07-06T17:58:13.376Z,52.80
2018-07-06T18:00:43.534Z,52.80
2018-07-06T18:03:16.213Z,52.80
2018-07-06T18:05:46.755Z,52.80
2018-07-06T18:08:18.864Z,52.80
2018-07-06T18:10:48.591Z,52.70
2018-07-06T18:13:17.873Z,52.70
2018-07-06T18:15:47.142Z,52.70
2018-07-06T18:18:16.591Z,52.70
2018-07-06T18:20:45.935Z,52.70
2018-07-06T18:23:15.262Z,52.70
2018-07-06T18:25:44.583Z,52.70
2018-07-06T18:28:13.851Z,52.70
2018-07-06T18:30:43.141Z,52.20
2018-07-06T18:33:12.451Z,52.10
2018-07-06T18:38:10.643Z,52.60
2018-07-06T18:40:40.048Z,52.10
2018-07-06T18:43:09.343Z,52.60
2018-07-06T18:45:39.195Z,52.00
2018-07-06T18:48:08.476Z,52.50
2018-07-06T18:50:37.839Z,52.50
2018-07-06T18:53:07.517Z,52.10
2018-07-06T18:55:37.079Z,51.90
2018-07-06T18:58:06.428Z,51.70
2018-07-06T19:00:36.048Z,51.50
2018-07-06T19:03:05.637Z,51.30
2018-07-06T19:05:34.930Z,51.20
2018-07-06T19:08:04.228Z,51.10
2018-07-06T19:10:36.287Z,50.90
2018-07-06T19:13:05.673Z,50.80
2018-07-06T19:15:35.755Z,50.70
2018-07-06T19:18:05.085Z,50.60
2018-07-06T19:20:34.393Z,50.60
2018-07-06T19:23:04.175Z,50.80
2018-07-06T19:25:33.480Z,50.80
2018-07-06T19:28:02.784Z,50.90
2018-07-06T19:30:32.152Z,50.90
2018-07-06T19:33:01.448Z,50.80
2018-07-06T19:35:30.777Z,50.80
2018-07-06T19:38:00.303Z,50.00
2018-07-06T19:40:29.607Z,50.50
2018-07-06T19:42:58.980Z,51.30
2018-07-06T19:45:28.315Z,51.20
2018-07-06T19:47:57.672Z,51.30
2018-07-06T19:50:27.179Z,51.10
2018-07-06T19:52:56.495Z,51.10
2018-07-06T19:55:25.765Z,51.00
2018-07-06T19:57:55.067Z,51.00
2018-07-06T20:00:24.373Z,51.00
2018-07-06T20:02:53.660Z,51.00
2018-07-06T20:05:23.058Z,51.00
2018-07-06T20:07:52.386Z,51.00
2018-07-06T20:10:21.980Z,51.00
2018-07-06T20:12:51.336Z,51.00
2018-07-06T20:15:20.635Z,51.00
2018-07-06T20:20:18.804Z,51.00
2018-07-06T20:22:48.144Z,51.00
2018-07-06T20:25:17.433Z,51.00
2018-07-06T20:27:46.736Z,50.50
2018-07-06T20:30:16.025Z,50.50
2018-07-06T20:32:45.367Z,50.70
2018-07-06T20:35:14.647Z,51.30
2018-07-06T20:37:43.958Z,50.90
2018-07-06T20:40:13.259Z,51.40
2018-07-06T20:42:42.635Z,51.40
2018-07-06T20:47:40.948Z,50.70
2018-07-06T20:50:10.244Z,51.90
2018-07-06T20:52:40.406Z,51.10
2018-07-06T20:55:09.687Z,50.80
2018-07-06T20:57:39.399Z,50.70
2018-07-06T21:00:08.759Z,50.50
2018-07-06T21:02:38.087Z,49.70
2018-07-06T21:05:07.412Z,50.20
2018-07-06T21:07:36.727Z,50.10
2018-07-06T21:10:06.062Z,50.00
2018-07-06T21:12:35.349Z,49.80
2018-07-06T21:15:04.627Z,49.10
2018-07-06T21:17:33.921Z,49.60
2018-07-06T21:20:03.187Z,49.90
2018-07-06T21:22:32.553Z,49.60
2018-07-06T21:25:01.827Z,49.50
2018-07-06T21:27:31.111Z,49.30
2018-07-06T21:30:00.811Z,49.20
2018-07-06T21:32:30.100Z,49.00
2018-07-06T21:34:59.364Z,49.00
2018-07-06T21:37:28.635Z,48.90
2018-07-06T21:39:57.928Z,48.80
2018-07-06T21:42:27.284Z,48.20
2018-07-06T21:44:56.638Z,48.70
2018-07-06T21:47:25.922Z,48.70
2018-07-06T21:49:55.242Z,48.60
2018-07-06T21:52:24.531Z,48.60
2018-07-06T21:54:53.819Z,48.60
2018-07-06T21:57:23.151Z,48.50
2018-07-06T21:59:52.476Z,48.40
2018-07-06T22:02:21.788Z,48.40
2018-07-06T22:04:51.064Z,48.40
2018-07-06T22:07:20.387Z,48.30
2018-07-06T22:09:49.647Z,48.40
2018-07-06T22:12:18.930Z,48.30
2018-07-06T22:14:48.212Z,48.40
2018-07-06T22:17:17.510Z,48.30
2018-07-06T22:19:46.774Z,48.30
2018-07-06T22:22:16.101Z,48.30
2018-07-06T22:24:45.411Z,48.30
2018-07-06T22:27:14.741Z,48.40
2018-07-06T22:29:44.057Z,48.30
2018-07-06T22:32:13.324Z,48.20
2018-07-06T22:34:42.664Z,48.30
2018-07-06T22:37:12.024Z,48.20
2018-07-06T22:39:41.543Z,48.30
2018-07-06T22:42:10.795Z,48.30
2018-07-06T22:44:41.938Z,48.30
2018-07-06T22:47:14.800Z,48.30
2018-07-06T22:49:44.059Z,48.40
2018-07-06T22:52:14.179Z,48.60
2018-07-06T22:54:45.235Z,48.60
2018-07-06T22:57:15.075Z,49.00
2018-07-06T22:59:44.534Z,49.30
2018-07-06T23:02:13.797Z,49.40
2018-07-06T23:04:43.095Z,49.70
2018-07-06T23:07:12.360Z,49.80
2018-07-06T23:09:41.672Z,49.60
2018-07-06T23:12:10.957Z,50.10
2018-07-06T23:14:40.259Z,50.20
2018-07-06T23:17:09.698Z,50.20
2018-07-06T23:19:39.116Z,50.30
2018-07-06T23:22:08.515Z,50.40
2018-07-06T23:24:37.861Z,50.50
2018-07-06T23:27:07.196Z,50.60
2018-07-06T23:29:36.478Z,51.30
2018-07-06T23:32:05.781Z,50.70
2018-07-06T23:34:35.132Z,50.70
2018-07-06T23:37:04.580Z,50.80
2018-07-06T23:39:33.880Z,50.80
2018-07-06T23:42:03.224Z,50.80
2018-07-06T23:44:33.111Z,50.80
2018-07-06T23:47:02.945Z,50.90
2018-07-06T23:49:32.664Z,50.90
2018-07-06T23:52:01.946Z,50.90
2018-07-06T23:54:31.297Z,50.90
2018-07-06T23:57:00.526Z,50.90
2018-07-06T23:59:29.916Z,50.80
